Tacoma, Washington
Current Conditions -  °F | °C
As of 12:58 PM on Saturday 20 Dec 2014 (Local Time) from KTCM Reporting Station
Light Rain Light Rain  
Wind Chill: 45°   Ceiling: 3000
Heat Index: 49°   Visibility: 5mi
Dew Point: 48°   Wind: 8mph
Humidity: 99%   Direction: 160°SSE
Pressure: 29.54"   Gusts: NA
Location:  47.26°N, 122.44°W
Report Text: KTCM 202058Z AUTO 16007KT 5SM -RA BR BKN030 OVC038 09/09 A2954 RMK AO2 SLP008 P0008 60024 T00920090 57027
Loading
Personal Weather Stations






























Interactive Weather Map New forecast layout! Learn more

10-Day Weather Forecast

Advertisements
Track Severe Weather on mobile